CheckWX is a tool to help pilots better visualize weather data.  It is not intended as a substitute for an official pre-flight weather briefing.

06:52:16 UTC

CYXJ METAR
Fort St John Airport
Fort St.John, British Columbia, Canada
Current

52 mins ago

CYXJ 190600Z 23014G20KT 15SM FEW060 SCT210 M08/M14 A2978 RMK SC1CI2 SLP143
Observed
Feb-19 @ 06:00 UTC
Wind
  • 230° at 14 KTS
  • Gusting to 20 KTS
Visibility
15 SM
Flight Rules
VFR
Cloud Levels
  • Few at 6,000' AGL
  • Scattered at 21,000' AGL
Temperature
-8°C / 18°F
Dewpoint
-14°C / 7°F
Humidity
62%
Altimeter
29.78" Hg
Pressure
1014.3 hPa
Previous

2 hours ago

CYXJ 190500Z CCA 24016KT 15SM SCT060 SCT210 M08/M13 A2979 RMK SC3CI1 SLP147
Observed
Feb-19 @ 05:00 UTC
Wind
  • 240° at 16 KTS
Visibility
15 SM
Flight Rules
VFR
Cloud Levels
  • Scattered at 6,000' AGL
  • Scattered at 21,000' AGL
Temperature
-8°C / 18°F
Dewpoint
-13°C / 9°F
Humidity
68%
Altimeter
29.79" Hg
Pressure
1014.7 hPa
Previous

3 hours ago

CYXJ 190400Z 23017KT 15SM SCT065 SCT210 M07/M13 A2979 RMK SC3CI1 SLP149
Observed
Feb-19 @ 04:00 UTC
Wind
  • 230° at 17 KTS
Visibility
15 SM
Flight Rules
VFR
Cloud Levels
  • Scattered at 6,500' AGL
  • Scattered at 21,000' AGL
Temperature
-7°C / 19°F
Dewpoint
-13°C / 9°F
Humidity
63%
Altimeter
29.79" Hg
Pressure
1014.9 hPa